Time;durP1;ratioP1;P1;durP2;ratioP2;P2;SDS_P1;SDS_P2;PMS_P1;PMS_P2;Temp;Humidity;BMP_temperature;BMP_pressure;BME280_temperature;BME280_humidity;BME280_pressure;Samples;Min_cycle;Max_cycle;Signal;HPM_P1;HPM_P2
2022/05/28 00:02:10;;;;;;;0.13;0.13;;;;;;;;;;5105501;28;20025;-35
2022/05/28 00:04:36;;;;;;;1.17;0.20;;;;;;;;;;5103633;27;20821;-34
2022/05/28 00:07:02;;;;;;;0.20;0.20;;;;;;;;;;5106678;27;20023;-34
2022/05/28 00:09:28;;;;;;;0.25;0.25;;;;;;;;;;5107912;27;20765;-33
2022/05/28 00:11:53;;;;;;;0.20;0.20;;;;;;;;;;5106758;28;20048;-34
2022/05/28 00:14:18;;;;;;;0.40;0.20;;;;;;;;;;5108443;27;20285;-34
2022/05/28 00:16:46;;;;;;;0.38;0.20;;;;;;;;;;5106600;27;20281;-34
2022/05/28 00:19:11;;;;;;;0.30;0.30;;;;;;;;;;5105180;28;20536;-34
2022/05/28 00:21:36;;;;;;;0.30;0.30;;;;;;;;;;5107494;27;20611;-31
2022/05/28 00:24:01;;;;;;;0.43;0.30;;;;;;;;;;5108184;28;20043;-35
2022/05/28 00:26:27;;;;;;;0.25;0.20;;;;;;;;;;5108558;28;20079;-32
2022/05/28 00:28:52;;;;;;;0.10;0.10;;;;;;;;;;5106092;27;20024;-34
2022/05/28 00:31:17;;;;;;;0.20;0.20;;;;;;;;;;5104910;27;20370;-33
2022/05/28 00:33:42;;;;;;;0.47;0.20;;;;;;;;;;5105944;28;20046;-34
2022/05/28 00:36:09;;;;;;;0.32;0.30;;;;;;;;;;5103434;27;20020;-32
2022/05/28 00:38:34;;;;;;;0.10;0.10;;;;;;;;;;5105893;27;20036;-34
2022/05/28 00:41:00;;;;;;;0.75;0.30;;;;;;;;;;5107111;28;20076;-33
2022/05/28 00:43:25;;;;;;;0.30;0.30;;;;;;;;;;5105180;27;20083;-33
2022/05/28 00:45:51;;;;;;;0.40;0.20;;;;;;;;;;5088839;28;20039;-33
2022/05/28 00:48:29;;;;;;;0.30;0.30;;;;;;;;;;5085502;28;20027;-33
2022/05/28 00:50:54;;;;;;;0.50;0.20;;;;;;;;;;5087361;28;20058;-32
2022/05/28 00:53:19;;;;;;;0.20;0.20;;;;;;;;;;5085446;28;20679;-32
2022/05/28 00:55:44;;;;;;;0.20;0.20;;;;;;;;;;5087760;28;20385;-34
2022/05/28 00:58:09;;;;;;;0.38;0.20;;;;;;;;;;5105327;28;20035;-33
2022/05/28 01:00:35;;;;;;;0.10;0.10;;;;;;;;;;5106404;28;20102;-36
2022/05/28 01:03:00;;;;;;;0.22;0.22;;;;;;;;;;5105575;27;20031;-34
2022/05/28 01:05:31;;;;;;;0.40;0.30;;;;;;;;;;5105493;28;20096;-34
2022/05/28 01:08:25;;;;;;;0.30;0.30;;;;;;;;;;5106833;28;20257;-34
2022/05/28 01:11:06;;;;;;;0.30;0.30;;;;;;;;;;5015960;28;20108;-32
2022/05/28 01:13:44;;;;;;;0.10;0.10;;;;;;;;;;5106379;27;20023;-33
2022/05/28 01:16:10;;;;;;;2.38;0.38;;;;;;;;;;5085913;28;20029;-33
2022/05/28 01:18:52;;;;;;;0.30;0.30;;;;;;;;;;5105859;28;20035;-35
2022/05/28 01:21:36;;;;;;;0.20;0.20;;;;;;;;;;5108559;28;20055;-34
2022/05/28 01:24:15;;;;;;;0.22;0.22;;;;;;;;;;5105638;27;20027;-38
2022/05/28 01:26:45;;;;;;;0.20;0.20;;;;;;;;;;5078520;28;20525;-35
2022/05/28 01:29:11;;;;;;;0.17;0.17;;;;;;;;;;5104203;27;20418;-32
2022/05/28 01:31:36;;;;;;;0.30;0.30;;;;;;;;;;5088729;28;20038;-34
2022/05/28 01:34:02;;;;;;;0.20;0.20;;;;;;;;;;5107275;28;20107;-34
2022/05/28 01:36:27;;;;;;;0.20;0.20;;;;;;;;;;5105810;27;20295;-36
2022/05/28 01:38:53;;;;;;;0.20;0.20;;;;;;;;;;5087916;28;20099;-33
2022/05/28 01:41:19;;;;;;;0.25;0.25;;;;;;;;;;5082318;28;20654;-33
2022/05/28 01:43:45;;;;;;;0.45;0.20;;;;;;;;;;5088982;28;20011;-33
2022/05/28 01:46:11;;;;;;;0.30;0.30;;;;;;;;;;5104711;27;20413;-34
2022/05/28 01:48:36;;;;;;;0.32;0.30;;;;;;;;;;5087410;28;20035;-33
2022/05/28 01:51:01;;;;;;;0.20;0.20;;;;;;;;;;5105009;28;20072;-33
2022/05/28 01:56:21;;;;;;;0.30;0.20;;;;;;;;;;5069688;27;20043;-35
2022/05/28 01:58:46;;;;;;;0.10;0.10;;;;;;;;;;5108937;27;20038;-34
2022/05/28 02:01:11;;;;;;;0.30;0.30;;;;;;;;;;5089401;28;20363;-33
2022/05/28 02:03:37;;;;;;;0.30;0.25;;;;;;;;;;5088455;28;20027;-33
2022/05/28 02:06:03;;;;;;;0.25;0.22;;;;;;;;;;5088386;28;20708;-34
2022/05/28 02:08:28;;;;;;;0.38;0.15;;;;;;;;;;5109857;28;20075;-35
2022/05/28 02:11:20;;;;;;;0.38;0.20;;;;;;;;;;5106908;27;20023;-33
2022/05/28 02:14:00;;;;;;;0.10;0.10;;;;;;;;;;5087446;27;20548;-35
2022/05/28 02:16:29;;;;;;;0.15;0.15;;;;;;;;;;5102186;27;20058;-34
2022/05/28 02:18:59;;;;;;;0.35;0.20;;;;;;;;;;5104579;27;20048;-33
2022/05/28 02:21:24;;;;;;;0.88;0.30;;;;;;;;;;5106142;28;20485;-33
2022/05/28 02:23:53;;;;;;;0.20;0.20;;;;;;;;;;5106053;27;20023;-34
2022/05/28 02:26:33;;;;;;;0.75;0.30;;;;;;;;;;5087043;28;20024;-32
2022/05/28 02:28:59;;;;;;;0.20;0.20;;;;;;;;;;5105294;27;20019;-32
2022/05/28 02:31:25;;;;;;;0.30;0.20;;;;;;;;;;5085715;28;20024;-33
2022/05/28 02:33:50;;;;;;;0.32;0.22;;;;;;;;;;5108301;28;20024;-34
2022/05/28 02:36:16;;;;;;;0.20;0.20;;;;;;;;;;5102816;27;20100;-35
2022/05/28 02:38:41;;;;;;;0.20;0.20;;;;;;;;;;5102281;27;20285;-33
2022/05/28 02:41:06;;;;;;;0.30;0.30;;;;;;;;;;5104855;27;20031;-34
2022/05/28 02:43:31;;;;;;;0.60;0.30;;;;;;;;;;5107170;27;20023;-31
2022/05/28 02:45:57;;;;;;;0.57;0.30;;;;;;;;;;5107289;28;20050;-36
2022/05/28 02:48:22;;;;;;;0.63;0.30;;;;;;;;;;5107755;27;20473;-33
2022/05/28 02:50:48;;;;;;;0.20;0.20;;;;;;;;;;5103877;27;20027;-36
2022/05/28 02:53:13;;;;;;;0.10;0.10;;;;;;;;;;5106606;28;20387;-32
2022/05/28 02:55:39;;;;;;;0.55;0.30;;;;;;;;;;5105642;28;20540;-32
2022/05/28 02:58:04;;;;;;;0.55;0.30;;;;;;;;;;5106987;27;20063;-37
2022/05/28 03:00:30;;;;;;;0.52;0.25;;;;;;;;;;5110628;28;20085;-33
2022/05/28 03:02:55;;;;;;;0.22;0.17;;;;;;;;;;5106437;27;20138;-35
2022/05/28 03:05:20;;;;;;;0.38;0.30;;;;;;;;;;5105952;27;20112;-35
2022/05/28 03:07:45;;;;;;;0.40;0.20;;;;;;;;;;5106812;27;20031;-32
2022/05/28 03:10:11;;;;;;;0.47;0.30;;;;;;;;;;5111334;28;20037;-33
2022/05/28 03:12:36;;;;;;;0.38;0.20;;;;;;;;;;5108673;28;20011;-34
2022/05/28 03:15:02;;;;;;;0.35;0.20;;;;;;;;;;5106168;27;20065;-34
2022/05/28 03:17:27;;;;;;;1.35;0.20;;;;;;;;;;5103756;27;20027;-35
2022/05/28 03:19:53;;;;;;;0.43;0.30;;;;;;;;;;5105542;28;20023;-38
2022/05/28 03:22:18;;;;;;;0.22;0.20;;;;;;;;;;5108661;28;20272;-32
2022/05/28 03:24:43;;;;;;;0.47;0.25;;;;;;;;;;5106067;28;20407;-34
2022/05/28 03:27:08;;;;;;;0.20;0.20;;;;;;;;;;5102285;27;20134;-35
2022/05/28 03:29:34;;;;;;;0.38;0.20;;;;;;;;;;5108613;27;20673;-34
2022/05/28 03:31:59;;;;;;;0.60;0.30;;;;;;;;;;5105502;28;20051;-33
2022/05/28 03:34:24;;;;;;;0.13;0.10;;;;;;;;;;5105887;27;20130;-33
2022/05/28 03:36:50;;;;;;;0.23;0.23;;;;;;;;;;5104338;27;20077;-36
2022/05/28 03:39:15;;;;;;;0.30;0.20;;;;;;;;;;5104824;27;22298;-33
2022/05/28 03:41:40;;;;;;;0.57;0.25;;;;;;;;;;5104562;27;20039;-36
2022/05/28 03:44:05;;;;;;;0.73;0.30;;;;;;;;;;5104101;28;20019;-32
2022/05/28 03:46:31;;;;;;;0.43;0.20;;;;;;;;;;5106473;27;20110;-33
2022/05/28 03:49:01;;;;;;;0.20;0.20;;;;;;;;;;5106510;28;20971;-34
2022/05/28 03:51:27;;;;;;;0.50;0.30;;;;;;;;;;5090199;28;20555;-31
2022/05/28 03:53:52;;;;;;;0.38;0.20;;;;;;;;;;5106747;27;20517;-34
2022/05/28 03:56:18;;;;;;;1.17;0.30;;;;;;;;;;5105240;27;20023;-35
2022/05/28 03:58:43;;;;;;;0.20;0.20;;;;;;;;;;5104392;28;20035;-34
2022/05/28 04:01:08;;;;;;;0.30;0.30;;;;;;;;;;5105903;28;20016;-34
2022/05/28 04:03:35;;;;;;;2.45;0.38;;;;;;;;;;5104157;27;20027;-39
2022/05/28 04:06:00;;;;;;;0.47;0.40;;;;;;;;;;5106761;28;20091;-36
2022/05/28 04:08:25;;;;;;;0.63;0.35;;;;;;;;;;5089923;28;20027;-34
2022/05/28 04:10:51;;;;;;;0.52;0.30;;;;;;;;;;5105291;28;20027;-34
2022/05/28 04:13:16;;;;;;;0.20;0.20;;;;;;;;;;5103977;27;20023;-35
2022/05/28 04:15:41;;;;;;;0.73;0.30;;;;;;;;;;5103542;27;20052;-32
2022/05/28 04:18:07;;;;;;;0.20;0.20;;;;;;;;;;5105134;27;20836;-33
2022/05/28 04:20:33;;;;;;;0.30;0.28;;;;;;;;;;5103860;27;20279;-34
2022/05/28 04:22:58;;;;;;;0.50;0.30;;;;;;;;;;5105153;27;20031;-33
2022/05/28 04:25:23;;;;;;;0.63;0.30;;;;;;;;;;5105934;28;20023;-37
2022/05/28 04:27:48;;;;;;;0.43;0.30;;;;;;;;;;5105505;28;20277;-34
2022/05/28 04:30:14;;;;;;;0.20;0.20;;;;;;;;;;5106372;27;20023;-32
2022/05/28 04:32:39;;;;;;;0.60;0.25;;;;;;;;;;5104841;27;20026;-32
2022/05/28 04:35:04;;;;;;;0.20;0.20;;;;;;;;;;5105950;28;20622;-32
2022/05/28 04:37:29;;;;;;;0.30;0.30;;;;;;;;;;5106448;27;20932;-35
2022/05/28 04:39:55;;;;;;;0.20;0.20;;;;;;;;;;5104129;27;20046;-32
2022/05/28 04:42:20;;;;;;;0.22;0.22;;;;;;;;;;5103092;27;21172;-36
2022/05/28 04:44:45;;;;;;;0.68;0.30;;;;;;;;;;5103210;28;20482;-33
2022/05/28 04:47:10;;;;;;;0.20;0.20;;;;;;;;;;5108046;27;20122;-32
2022/05/28 04:49:35;;;;;;;0.60;0.30;;;;;;;;;;5106856;28;20284;-33
2022/05/28 04:52:00;;;;;;;0.30;0.30;;;;;;;;;;5103625;27;20354;-35
2022/05/28 04:54:26;;;;;;;0.20;0.20;;;;;;;;;;5106716;27;20023;-32
2022/05/28 04:56:51;;;;;;;0.20;0.20;;;;;;;;;;5106289;28;20812;-35
2022/05/28 04:59:17;;;;;;;0.53;0.40;;;;;;;;;;5106208;27;20039;-36
2022/05/28 05:01:42;;;;;;;0.20;0.20;;;;;;;;;;5105207;28;20264;-36
2022/05/28 05:04:07;;;;;;;0.63;0.28;;;;;;;;;;5105954;27;20034;-33
2022/05/28 05:06:32;;;;;;;0.20;0.20;;;;;;;;;;5108208;28;20022;-34
2022/05/28 05:08:57;;;;;;;0.30;0.30;;;;;;;;;;5105034;27;20050;-32
2022/05/28 05:11:23;;;;;;;0.32;0.20;;;;;;;;;;5106737;28;20159;-33
2022/05/28 05:13:48;;;;;;;0.43;0.30;;;;;;;;;;5103874;27;20015;-33
2022/05/28 05:16:14;;;;;;;0.50;0.30;;;;;;;;;;5106189;27;20019;-35
2022/05/28 05:18:39;;;;;;;0.28;0.28;;;;;;;;;;5106325;28;20024;-35
2022/05/28 05:21:04;;;;;;;0.40;0.25;;;;;;;;;;5109438;28;20117;-32
2022/05/28 05:23:29;;;;;;;0.20;0.20;;;;;;;;;;5107343;28;20016;-33
2022/05/28 05:25:55;;;;;;;0.30;0.30;;;;;;;;;;5106559;27;20026;-32
2022/05/28 05:28:20;;;;;;;0.20;0.20;;;;;;;;;;5107872;27;20360;-33
2022/05/28 05:30:45;;;;;;;0.28;0.28;;;;;;;;;;5108683;27;20102;-34
2022/05/28 05:33:10;;;;;;;0.20;0.20;;;;;;;;;;5109122;27;20661;-34
2022/05/28 05:35:35;;;;;;;0.27;0.20;;;;;;;;;;5110925;28;20714;-33
2022/05/28 05:38:05;;;;;;;0.20;0.20;;;;;;;;;;5110785;28;20284;-34
2022/05/28 05:40:31;;;;;;;0.63;0.30;;;;;;;;;;5110600;27;20042;-33
2022/05/28 05:42:58;;;;;;;0.20;0.20;;;;;;;;;;5109886;27;20119;-32
2022/05/28 05:45:23;;;;;;;0.85;0.22;;;;;;;;;;5109539;28;20027;-33
2022/05/28 05:47:48;;;;;;;0.43;0.35;;;;;;;;;;5110379;27;20533;-33
2022/05/28 05:50:13;;;;;;;0.20;0.20;;;;;;;;;;5110508;28;20015;-32
2022/05/28 05:52:40;;;;;;;0.93;0.20;;;;;;;;;;5105810;27;21696;-32
2022/05/28 05:55:05;;;;;;;0.65;0.20;;;;;;;;;;5108302;28;20287;-33
2022/05/28 05:57:31;;;;;;;0.73;0.40;;;;;;;;;;5111483;28;20507;-32
2022/05/28 05:59:57;;;;;;;0.25;0.25;;;;;;;;;;5108178;28;20046;-34
2022/05/28 06:02:22;;;;;;;0.65;0.40;;;;;;;;;;5107412;27;20977;-34
2022/05/28 06:04:47;;;;;;;0.40;0.32;;;;;;;;;;5110283;28;20027;-32
2022/05/28 06:07:12;;;;;;;0.47;0.30;;;;;;;;;;5106779;28;20019;-32
2022/05/28 06:09:37;;;;;;;0.57;0.40;;;;;;;;;;5106893;27;20854;-33
2022/05/28 06:12:03;;;;;;;0.40;0.30;;;;;;;;;;5104142;27;20861;-32
2022/05/28 06:14:28;;;;;;;0.30;0.20;;;;;;;;;;5105338;28;20284;-32
2022/05/28 06:16:53;;;;;;;0.20;0.20;;;;;;;;;;5105236;27;20024;-33
2022/05/28 06:19:18;;;;;;;0.20;0.20;;;;;;;;;;5104366;27;20035;-32
2022/05/28 06:21:44;;;;;;;1.10;0.50;;;;;;;;;;5104509;28;20042;-32
2022/05/28 06:24:09;;;;;;;0.43;0.30;;;;;;;;;;5106448;27;20038;-34
2022/05/28 06:26:34;;;;;;;0.20;0.20;;;;;;;;;;5105254;27;20852;-32
2022/05/28 06:28:59;;;;;;;0.20;0.20;;;;;;;;;;5105534;27;20273;-36
2022/05/28 06:31:25;;;;;;;0.45;0.30;;;;;;;;;;5102262;27;20020;-37
2022/05/28 06:33:50;;;;;;;0.20;0.20;;;;;;;;;;5106986;27;20022;-34
2022/05/28 06:36:15;;;;;;;0.82;0.50;;;;;;;;;;5102640;27;20486;-34
2022/05/28 06:38:40;;;;;;;0.43;0.20;;;;;;;;;;5104887;27;20084;-33
2022/05/28 06:41:06;;;;;;;0.65;0.30;;;;;;;;;;5103540;27;20105;-34
2022/05/28 06:43:31;;;;;;;1.45;0.20;;;;;;;;;;5110130;28;20849;-34
2022/05/28 06:45:59;;;;;;;0.85;0.40;;;;;;;;;;5108500;27;20024;-33
2022/05/28 06:48:24;;;;;;;0.20;0.20;;;;;;;;;;5107539;27;20521;-33
2022/05/28 06:51:01;;;;;;;0.30;0.30;;;;;;;;;;5104317;28;20038;-36
2022/05/28 06:53:26;;;;;;;0.60;0.35;;;;;;;;;;5105936;27;20023;-31
2022/05/28 06:55:52;;;;;;;0.22;0.20;;;;;;;;;;5105610;28;20146;-34
2022/05/28 06:58:17;;;;;;;0.60;0.30;;;;;;;;;;5105903;27;20042;-34
2022/05/28 07:00:42;;;;;;;0.22;0.20;;;;;;;;;;5105220;27;20058;-33
2022/05/28 07:03:18;;;;;;;0.40;0.20;;;;;;;;;;5110205;28;20042;-35
2022/05/28 07:05:43;;;;;;;0.35;0.30;;;;;;;;;;5108074;28;20440;-33
2022/05/28 07:08:08;;;;;;;0.63;0.30;;;;;;;;;;5107141;28;20080;-35
2022/05/28 07:10:38;;;;;;;0.80;0.40;;;;;;;;;;5105504;27;20055;-34
2022/05/28 07:13:03;;;;;;;0.45;0.30;;;;;;;;;;5087169;28;20031;-34
2022/05/28 07:15:28;;;;;;;0.20;0.20;;;;;;;;;;5104487;27;20031;-33
2022/05/28 07:17:54;;;;;;;0.30;0.30;;;;;;;;;;5101471;27;20027;-35
2022/05/28 07:20:19;;;;;;;0.57;0.30;;;;;;;;;;5103253;27;20301;-32
2022/05/28 07:22:44;;;;;;;0.22;0.20;;;;;;;;;;5104289;27;20273;-34
2022/05/28 07:25:09;;;;;;;0.73;0.30;;;;;;;;;;5106832;28;20016;-36
2022/05/28 07:27:35;;;;;;;0.30;0.30;;;;;;;;;;5102577;27;20281;-34
2022/05/28 07:30:00;;;;;;;0.57;0.30;;;;;;;;;;5104335;27;20070;-36
2022/05/28 07:32:29;;;;;;;0.20;0.20;;;;;;;;;;5105273;27;20716;-35
2022/05/28 07:34:54;;;;;;;0.52;0.30;;;;;;;;;;5104117;27;20961;-37
2022/05/28 07:37:19;;;;;;;0.47;0.35;;;;;;;;;;5103773;27;20042;-37
2022/05/28 07:39:45;;;;;;;0.52;0.30;;;;;;;;;;5103883;27;20030;-33
2022/05/28 07:42:10;;;;;;;1.40;0.30;;;;;;;;;;5106213;27;20598;-38
2022/05/28 07:44:35;;;;;;;0.65;0.20;;;;;;;;;;5105606;27;20048;-32
2022/05/28 07:47:06;;;;;;;0.60;0.40;;;;;;;;;;5103688;28;20023;-34
2022/05/28 07:49:31;;;;;;;0.70;0.40;;;;;;;;;;5105063;27;20026;-36
2022/05/28 07:51:57;;;;;;;0.57;0.30;;;;;;;;;;5105945;28;20107;-34
2022/05/28 07:54:22;;;;;;;0.47;0.20;;;;;;;;;;5104629;27;20488;-34
2022/05/28 07:56:47;;;;;;;0.52;0.25;;;;;;;;;;5103775;27;20288;-35
2022/05/28 07:59:12;;;;;;;1.30;0.43;;;;;;;;;;5105636;27;20035;-38
2022/05/28 08:01:39;;;;;;;0.20;0.20;;;;;;;;;;5105290;27;20031;-44
2022/05/28 08:04:05;;;;;;;0.57;0.38;;;;;;;;;;5104252;27;20046;-36
2022/05/28 08:06:33;;;;;;;1.00;0.50;;;;;;;;;;5103552;27;20580;-37
2022/05/28 08:08:58;;;;;;;0.40;0.28;;;;;;;;;;5106698;27;20107;-36
2022/05/28 08:11:23;;;;;;;0.38;0.25;;;;;;;;;;5105014;27;20544;-35
2022/05/28 08:13:48;;;;;;;0.70;0.30;;;;;;;;;;5106339;27;20012;-35
2022/05/28 08:16:14;;;;;;;0.45;0.30;;;;;;;;;;5107355;27;20444;-33
2022/05/28 08:18:40;;;;;;;2.20;0.28;;;;;;;;;;5102922;27;20020;-32
2022/05/28 08:23:49;;;;;;;0.28;0.20;;;;;;;;;;5105241;28;20026;-34
2022/05/28 08:26:14;;;;;;;0.73;0.20;;;;;;;;;;5100414;27;20020;-33
2022/05/28 08:28:40;;;;;;;0.35;0.35;;;;;;;;;;5104301;27;20137;-36
2022/05/28 08:31:05;;;;;;;0.50;0.40;;;;;;;;;;5106295;28;20041;-34
2022/05/28 08:33:30;;;;;;;0.70;0.40;;;;;;;;;;5103938;27;20111;-35
2022/05/28 08:35:56;;;;;;;1.05;0.40;;;;;;;;;;5104043;27;20042;-33
2022/05/28 08:38:21;;;;;;;0.73;0.28;;;;;;;;;;5107889;28;20489;-35
2022/05/28 08:40:57;;;;;;;0.30;0.30;;;;;;;;;;5105211;27;20087;-33
2022/05/28 08:43:23;;;;;;;0.77;0.45;;;;;;;;;;5085810;28;20019;-34
2022/05/28 08:45:49;;;;;;;0.57;0.30;;;;;;;;;;5088461;27;20038;-33
2022/05/28 08:48:16;;;;;;;0.20;0.20;;;;;;;;;;5104512;27;20019;-34
2022/05/28 08:50:46;;;;;;;0.20;0.20;;;;;;;;;;5103337;27;20058;-33
2022/05/28 08:53:13;;;;;;;0.70;0.28;;;;;;;;;;5105502;27;20031;-35
2022/05/28 08:55:40;;;;;;;0.40;0.40;;;;;;;;;;5107004;28;20051;-36
2022/05/28 08:58:06;;;;;;;1.02;0.30;;;;;;;;;;5087827;28;20019;-35
2022/05/28 09:00:34;;;;;;;0.50;0.30;;;;;;;;;;5086698;28;20593;-32
2022/05/28 09:03:05;;;;;;;1.35;0.40;;;;;;;;;;5103504;27;20022;-34
2022/05/28 09:05:50;;;;;;;0.80;0.30;;;;;;;;;;5103609;27;20108;-33
2022/05/28 09:08:18;;;;;;;0.65;0.35;;;;;;;;;;5085439;28;20023;-33
2022/05/28 09:10:44;;;;;;;0.55;0.35;;;;;;;;;;5085172;28;20020;-34
2022/05/28 09:13:12;;;;;;;0.30;0.28;;;;;;;;;;5105503;27;20016;-32
2022/05/28 09:15:37;;;;;;;1.92;0.57;;;;;;;;;;5104152;28;20019;-33
2022/05/28 09:18:02;;;;;;;0.57;0.35;;;;;;;;;;5082468;27;20044;-33
2022/05/28 09:20:37;;;;;;;0.30;0.20;;;;;;;;;;5103423;28;20059;-36
2022/05/28 09:23:03;;;;;;;0.40;0.20;;;;;;;;;;5104195;28;20084;-35
2022/05/28 09:25:31;;;;;;;0.65;0.30;;;;;;;;;;5102331;27;20067;-33
2022/05/28 09:27:56;;;;;;;0.65;0.30;;;;;;;;;;5086537;28;20105;-35
2022/05/28 09:30:27;;;;;;;1.73;0.30;;;;;;;;;;5104968;28;20115;-35
2022/05/28 09:33:08;;;;;;;0.82;0.40;;;;;;;;;;5105551;28;20402;-34
2022/05/28 09:35:51;;;;;;;0.50;0.10;;;;;;;;;;5103843;27;20510;-35
2022/05/28 09:38:19;;;;;;;0.77;0.40;;;;;;;;;;5086486;28;20118;-33
2022/05/28 09:40:47;;;;;;;0.75;0.38;;;;;;;;;;5084637;27;20059;-35
2022/05/28 09:43:22;;;;;;;0.63;0.30;;;;;;;;;;5105097;27;20553;-35
2022/05/28 09:45:47;;;;;;;0.82;0.40;;;;;;;;;;5103418;27;20023;-35
2022/05/28 09:48:19;;;;;;;0.43;0.17;;;;;;;;;;5106437;28;20386;-33
2022/05/28 09:50:44;;;;;;;0.45;0.28;;;;;;;;;;5107049;28;20093;-34
2022/05/28 09:56:27;;;;;;;0.65;0.50;;;;;;;;;;5105875;27;20030;-34
2022/05/28 09:58:52;;;;;;;1.25;0.52;;;;;;;;;;5050479;28;20035;-33
2022/05/28 10:01:26;;;;;;;0.43;0.30;;;;;;;;;;5107410;28;20508;-35
2022/05/28 10:04:40;;;;;;;0.63;0.30;;;;;;;;;;5087778;28;20265;-32
2022/05/28 10:06:47;;;;;;;0.30;0.30;;;;;;;;;;5080822;27;20050;-33
2022/05/28 10:09:14;;;;;;;0.45;0.30;;;;;;;;;;5085399;28;20028;-33
2022/05/28 10:12:02;;;;;;;0.60;0.30;;;;;;;;;;5105399;27;20031;-36
2022/05/28 10:14:29;;;;;;;0.65;0.30;;;;;;;;;;5103697;28;20163;-33
2022/05/28 10:16:56;;;;;;;1.35;0.38;;;;;;;;;;5107387;27;20029;-34
2022/05/28 10:19:28;;;;;;;0.80;0.40;;;;;;;;;;5088212;28;20046;-31
2022/05/28 10:21:54;;;;;;;1.70;0.43;;;;;;;;;;5089477;28;20019;-34
2022/05/28 10:24:19;;;;;;;0.15;0.10;;;;;;;;;;5088531;28;20363;-34
2022/05/28 10:26:57;;;;;;;0.20;0.20;;;;;;;;;;5107213;27;20035;-34
2022/05/28 10:29:29;;;;;;;0.75;0.32;;;;;;;;;;5090352;28;20405;-36
2022/05/28 10:31:54;;;;;;;0.20;0.17;;;;;;;;;;5090544;28;20469;-32
2022/05/28 10:34:29;;;;;;;0.73;0.40;;;;;;;;;;5109681;28;20119;-34
2022/05/28 10:37:04;;;;;;;0.80;0.40;;;;;;;;;;5109411;28;20019;-36
2022/05/28 10:39:29;;;;;;;1.30;0.40;;;;;;;;;;5104100;27;20042;-34
2022/05/28 10:41:54;;;;;;;0.82;0.30;;;;;;;;;;5106305;28;20024;-32
2022/05/28 10:44:19;;;;;;;0.63;0.43;;;;;;;;;;5090723;28;20023;-37
2022/05/28 10:46:57;;;;;;;0.38;0.30;;;;;;;;;;5105366;27;20342;-33
2022/05/28 10:49:40;;;;;;;0.52;0.40;;;;;;;;;;5091164;28;20043;-31
2022/05/28 10:52:27;;;;;;;0.50;0.40;;;;;;;;;;5107666;28;20027;-36
2022/05/28 10:55:12;;;;;;;1.00;0.40;;;;;;;;;;5089617;27;20130;-31
2022/05/28 10:57:38;;;;;;;1.17;0.40;;;;;;;;;;5097206;27;20019;-36
2022/05/28 11:00:13;;;;;;;0.30;0.20;;;;;;;;;;5093533;27;21039;-33
2022/05/28 11:02:57;;;;;;;2.20;0.43;;;;;;;;;;5071831;28;20023;-34
2022/05/28 11:05:28;;;;;;;2.38;1.08;;;;;;;;;;5104105;27;20147;-32
2022/05/28 11:07:56;;;;;;;3.33;0.90;;;;;;;;;;5109314;28;20074;-33
2022/05/28 11:10:32;;;;;;;7.20;1.83;;;;;;;;;;5095387;27;20039;-37
2022/05/28 11:13:16;;;;;;;7.43;2.17;;;;;;;;;;5080895;27;20031;-34
2022/05/28 11:16:00;;;;;;;12.65;2.28;;;;;;;;;;5096968;27;20026;-33
2022/05/28 11:18:35;;;;;;;8.13;2.10;;;;;;;;;;5097028;27;21712;-31
2022/05/28 11:21:12;;;;;;;5.85;1.98;;;;;;;;;;5098124;27;20438;-31
2022/05/28 11:23:40;;;;;;;5.47;2.00;;;;;;;;;;5101603;27;20027;-31
2022/05/28 11:26:14;;;;;;;5.35;1.90;;;;;;;;;;5071577;28;20051;-31
2022/05/28 11:28:58;;;;;;;6.25;1.90;;;;;;;;;;5100438;27;20461;-34
2022/05/28 11:31:36;;;;;;;4.75;1.77;;;;;;;;;;5099404;28;23203;-32
2022/05/28 11:34:05;;;;;;;5.32;1.95;;;;;;;;;;5097800;27;20023;-31
2022/05/28 11:36:38;;;;;;;7.03;1.88;;;;;;;;;;5094496;27;20026;-31
2022/05/28 11:39:04;;;;;;;4.32;1.65;;;;;;;;;;5094345;27;20023;-33
2022/05/28 11:41:36;;;;;;;9.20;1.80;;;;;;;;;;5080066;28;20168;-33
2022/05/28 11:44:14;;;;;;;5.88;1.40;;;;;;;;;;5078141;27;20011;-33
2022/05/28 11:46:47;;;;;;;4.32;1.58;;;;;;;;;;5107180;28;20608;-31
2022/05/28 11:52:31;;;;;;;5.18;1.70;;;;;;;;;;5103372;27;20031;-31
2022/05/28 11:55:17;;;;;;;4.88;1.80;;;;;;;;;;5090552;27;20027;-34
2022/05/28 11:57:45;;;;;;;6.05;1.58;;;;;;;;;;5103206;28;20027;-32
2022/05/28 12:00:10;;;;;;;4.88;1.45;;;;;;;;;;5104553;27;20450;-34
2022/05/28 12:02:41;;;;;;;6.50;1.40;;;;;;;;;;5105619;28;20139;-32
2022/05/28 12:05:20;;;;;;;3.83;1.50;;;;;;;;;;5084355;28;20564;-34
2022/05/28 12:07:45;;;;;;;4.25;1.38;;;;;;;;;;5103587;27;20015;-30
2022/05/28 12:10:11;;;;;;;6.95;1.40;;;;;;;;;;5082228;28;20258;-30
2022/05/28 12:12:36;;;;;;;3.40;1.40;;;;;;;;;;5087718;28;20634;-30
2022/05/28 12:15:05;;;;;;;3.65;1.42;;;;;;;;;;5102088;28;20023;-35
2022/05/28 12:17:30;;;;;;;2.53;1.20;;;;;;;;;;5084620;27;20023;-35
2022/05/28 12:19:57;;;;;;;4.40;1.35;;;;;;;;;;5084690;28;20027;-33
2022/05/28 12:22:24;;;;;;;2.10;1.10;;;;;;;;;;5104304;27;20378;-32
2022/05/28 12:25:16;;;;;;;3.30;1.38;;;;;;;;;;5103426;28;20034;-33
2022/05/28 12:27:45;;;;;;;4.47;1.58;;;;;;;;;;5101791;27;20046;-33
2022/05/28 12:30:29;;;;;;;5.10;1.40;;;;;;;;;;5084660;28;20030;-32
2022/05/28 12:32:54;;;;;;;4.20;1.20;;;;;;;;;;5105023;28;20043;-33
2022/05/28 12:35:19;;;;;;;3.83;1.02;;;;;;;;;;5104443;27;20095;-33
2022/05/28 12:37:50;;;;;;;5.33;1.40;;;;;;;;;;5100873;27;20016;-32
2022/05/28 12:40:33;;;;;;;2.65;1.23;;;;;;;;;;5081235;28;20277;-33
2022/05/28 12:43:19;;;;;;;3.92;1.25;;;;;;;;;;5103224;27;20062;-33
2022/05/28 12:45:45;;;;;;;4.53;1.50;;;;;;;;;;5091054;28;20050;-34
2022/05/28 12:48:12;;;;;;;3.85;1.10;;;;;;;;;;5103711;27;20007;-35
2022/05/28 12:50:40;;;;;;;3.58;1.33;;;;;;;;;;5087643;28;20019;-34
2022/05/28 12:53:11;;;;;;;4.07;1.20;;;;;;;;;;5095069;27;20142;-34
2022/05/28 12:55:37;;;;;;;3.35;1.20;;;;;;;;;;5085675;28;20493;-32
2022/05/28 12:58:04;;;;;;;2.30;1.10;;;;;;;;;;5100169;27;20023;-34
2022/05/28 13:00:30;;;;;;;3.78;1.10;;;;;;;;;;5098794;27;20102;-33
2022/05/28 13:02:56;;;;;;;3.50;1.20;;;;;;;;;;5090929;27;20053;-34
2022/05/28 13:05:38;;;;;;;2.33;1.08;;;;;;;;;;5077330;28;20499;-34
2022/05/28 13:08:06;;;;;;;3.80;1.20;;;;;;;;;;5076125;28;20012;-36
2022/05/28 13:10:32;;;;;;;5.93;1.25;;;;;;;;;;5090845;27;20027;-37
2022/05/28 13:13:09;;;;;;;15.30;1.63;;;;;;;;;;5092049;27;20064;-32
2022/05/28 13:15:44;;;;;;;3.80;1.45;;;;;;;;;;5092320;28;20507;-33
2022/05/28 13:18:27;;;;;;;6.28;1.45;;;;;;;;;;5072933;28;20038;-35
2022/05/28 13:20:53;;;;;;;3.47;1.10;;;;;;;;;;5089812;27;20070;-37
2022/05/28 13:23:21;;;;;;;6.47;1.27;;;;;;;;;;5095195;28;20134;-34
2022/05/28 13:25:46;;;;;;;2.80;1.02;;;;;;;;;;5091476;27;20027;-32
2022/05/28 13:28:20;;;;;;;6.72;1.42;;;;;;;;;;5092193;28;20026;-35
2022/05/28 13:30:47;;;;;;;6.93;1.00;;;;;;;;;;5089334;27;21422;-33
2022/05/28 13:33:14;;;;;;;2.60;1.05;;;;;;;;;;5094374;27;20047;-35
2022/05/28 13:35:49;;;;;;;5.35;1.00;;;;;;;;;;5081834;28;20102;-35
2022/05/28 13:38:16;;;;;;;4.90;1.40;;;;;;;;;;5098608;27;20113;-35
2022/05/28 13:40:42;;;;;;;8.02;1.50;;;;;;;;;;5074442;27;20024;-31
2022/05/28 13:43:08;;;;;;;3.28;1.30;;;;;;;;;;5100100;27;20053;-34
2022/05/28 13:45:35;;;;;;;4.25;1.55;;;;;;;;;;5080485;28;20561;-34
2022/05/28 13:48:04;;;;;;;5.88;1.33;;;;;;;;;;5092375;27;20473;-34
2022/05/28 13:50:29;;;;;;;4.25;1.40;;;;;;;;;;5078819;27;20030;-33
2022/05/28 13:52:56;;;;;;;6.70;1.42;;;;;;;;;;5105454;27;20031;-34
2022/05/28 13:55:23;;;;;;;5.28;1.60;;;;;;;;;;5088380;27;20075;-33
2022/05/28 13:57:49;;;;;;;4.38;1.15;;;;;;;;;;5101219;27;20030;-33
2022/05/28 14:00:18;;;;;;;5.88;1.27;;;;;;;;;;5102499;28;20079;-37
2022/05/28 14:03:00;;;;;;;2.63;1.10;;;;;;;;;;5105082;28;20028;-32
2022/05/28 14:05:25;;;;;;;;;;;;;;;;;;5101039;27;20547;-31
2022/05/28 14:07:52;;;;;;;3.95;1.25;;;;;;;;;;5093989;27;19916;-33
2022/05/28 14:10:18;;;;;;;4.20;1.17;;;;;;;;;;5081626;28;20043;-32
2022/05/28 14:12:43;;;;;;;3.90;1.08;;;;;;;;;;5100219;27;20079;-33
2022/05/28 14:15:18;;;;;;;4.63;1.25;;;;;;;;;;5082883;28;20027;-32
2022/05/28 14:17:43;;;;;;;21.65;5.15;;;;;;;;;;5077260;28;20019;-36
2022/05/28 14:20:13;;;;;;;59.53;28.73;;;;;;;;;;5091698;27;20040;-32
2022/05/28 14:22:46;;;;;;;261.63;115.07;;;;;;;;;;5079961;28;20095;-34
2022/05/28 14:25:15;;;;;;;462.73;245.90;;;;;;;;;;5095295;28;20103;-32
2022/05/28 14:27:41;;;;;;;525.88;297.80;;;;;;;;;;5083894;27;20019;-33
2022/05/28 14:30:06;;;;;;;614.72;378.25;;;;;;;;;;5087244;27;20023;-36
2022/05/28 14:32:36;;;;;;;685.70;441.67;;;;;;;;;;5064484;27;22306;-36
2022/05/28 14:35:11;;;;;;;727.45;476.67;;;;;;;;;;5062319;27;20079;-34
2022/05/28 14:37:36;;;;;;;695.80;456.58;;;;;;;;;;5084877;27;20054;-35
2022/05/28 14:40:02;;;;;;;637.83;412.50;;;;;;;;;;5087168;27;20037;-35
2022/05/28 14:42:31;;;;;;;527.53;318.83;;;;;;;;;;5090285;27;20071;-33
2022/05/28 14:44:58;;;;;;;646.25;419.85;;;;;;;;;;5089311;28;20023;-34
2022/05/28 14:47:30;;;;;;;624.15;403.33;;;;;;;;;;5091519;27;20031;-33
2022/05/28 14:49:57;;;;;;;587.30;368.80;;;;;;;;;;5105551;27;20024;-34
2022/05/28 14:52:22;;;;;;;563.42;351.30;;;;;;;;;;5105015;28;20111;-34
2022/05/28 14:54:49;;;;;;;554.67;347.30;;;;;;;;;;5107735;28;20043;-33
2022/05/28 14:57:38;;;;;;;522.10;321.33;;;;;;;;;;5102017;27;20023;-32
2022/05/28 15:00:05;;;;;;;516.58;315.45;;;;;;;;;;5088234;27;20049;-33